sensor_id;sensor_type;location;lat;lon;timestamp;P1;durP1;ratioP1;P2;durP2;ratioP2
54561;SDS011;69047;53.358;-1.486;2023-07-29T00:00:37;4.85;;;1.88;;
54561;SDS011;69047;53.358;-1.486;2023-07-29T00:03:03;4.03;;;1.48;;
54561;SDS011;69047;53.358;-1.486;2023-07-29T00:05:28;5.72;;;1.38;;
54561;SDS011;69047;53.358;-1.486;2023-07-29T00:07:54;2.72;;;1.52;;
54561;SDS011;69047;53.358;-1.486;2023-07-29T00:10:19;3.58;;;1.63;;
54561;SDS011;69047;53.358;-1.486;2023-07-29T00:12:45;8.15;;;1.73;;
54561;SDS011;69047;53.358;-1.486;2023-07-29T00:15:10;6.72;;;2.22;;
54561;SDS011;69047;53.358;-1.486;2023-07-29T00:17:36;2.53;;;1.40;;
54561;SDS011;69047;53.358;-1.486;2023-07-29T00:20:01;2.03;;;1.27;;
54561;SDS011;69047;53.358;-1.486;2023-07-29T00:22:27;3.65;;;1.63;;
54561;SDS011;69047;53.358;-1.486;2023-07-29T00:24:53;6.40;;;1.70;;
54561;SDS011;69047;53.358;-1.486;2023-07-29T00:27:22;6.65;;;1.88;;
54561;SDS011;69047;53.358;-1.486;2023-07-29T00:29:48;4.55;;;1.70;;
54561;SDS011;69047;53.358;-1.486;2023-07-29T00:32:13;5.22;;;1.50;;
54561;SDS011;69047;53.358;-1.486;2023-07-29T00:34:39;4.57;;;1.73;;
54561;SDS011;69047;53.358;-1.486;2023-07-29T00:37:04;10.93;;;1.98;;
54561;SDS011;69047;53.358;-1.486;2023-07-29T00:39:31;7.07;;;2.15;;
54561;SDS011;69047;53.358;-1.486;2023-07-29T00:41:56;4.05;;;2.17;;
54561;SDS011;69047;53.358;-1.486;2023-07-29T00:44:22;11.25;;;2.45;;
54561;SDS011;69047;53.358;-1.486;2023-07-29T00:46:47;4.07;;;2.25;;
54561;SDS011;69047;53.358;-1.486;2023-07-29T00:49:17;5.60;;;2.13;;
54561;SDS011;69047;53.358;-1.486;2023-07-29T00:51:43;5.43;;;1.80;;
54561;SDS011;69047;53.358;-1.486;2023-07-29T00:54:08;2.75;;;1.73;;
54561;SDS011;69047;53.358;-1.486;2023-07-29T00:56:34;2.08;;;1.63;;
54561;SDS011;69047;53.358;-1.486;2023-07-29T00:59:00;9.40;;;1.70;;
54561;SDS011;69047;53.358;-1.486;2023-07-29T01:01:26;7.07;;;2.00;;
54561;SDS011;69047;53.358;-1.486;2023-07-29T01:03:55;5.78;;;1.90;;
54561;SDS011;69047;53.358;-1.486;2023-07-29T01:06:41;4.55;;;2.03;;
54561;SDS011;69047;53.358;-1.486;2023-07-29T01:09:20;3.25;;;1.88;;
54561;SDS011;69047;53.358;-1.486;2023-07-29T01:11:57;8.10;;;1.67;;
54561;SDS011;69047;53.358;-1.486;2023-07-29T01:14:46;8.02;;;2.00;;
54561;SDS011;69047;53.358;-1.486;2023-07-29T01:17:22;4.88;;;2.08;;
54561;SDS011;69047;53.358;-1.486;2023-07-29T01:20:09;11.00;;;1.92;;
54561;SDS011;69047;53.358;-1.486;2023-07-29T01:22:38;4.15;;;2.13;;
54561;SDS011;69047;53.358;-1.486;2023-07-29T01:25:05;3.00;;;1.58;;
54561;SDS011;69047;53.358;-1.486;2023-07-29T01:27:30;7.30;;;1.85;;
54561;SDS011;69047;53.358;-1.486;2023-07-29T01:29:56;8.15;;;2.22;;
54561;SDS011;69047;53.358;-1.486;2023-07-29T01:32:28;2.63;;;1.98;;
54561;SDS011;69047;53.358;-1.486;2023-07-29T01:35:12;6.47;;;2.13;;
54561;SDS011;69047;53.358;-1.486;2023-07-29T01:37:44;5.38;;;2.05;;
54561;SDS011;69047;53.358;-1.486;2023-07-29T01:40:14;2.47;;;1.90;;
54561;SDS011;69047;53.358;-1.486;2023-07-29T01:42:40;4.03;;;2.00;;
54561;SDS011;69047;53.358;-1.486;2023-07-29T01:45:06;3.90;;;2.00;;
54561;SDS011;69047;53.358;-1.486;2023-07-29T01:47:32;8.48;;;2.20;;
54561;SDS011;69047;53.358;-1.486;2023-07-29T01:49:57;3.10;;;1.77;;
54561;SDS011;69047;53.358;-1.486;2023-07-29T01:52:22;7.82;;;2.05;;
54561;SDS011;69047;53.358;-1.486;2023-07-29T01:54:48;7.95;;;2.28;;
54561;SDS011;69047;53.358;-1.486;2023-07-29T01:57:13;3.10;;;1.75;;
54561;SDS011;69047;53.358;-1.486;2023-07-29T01:59:38;7.15;;;2.17;;
54561;SDS011;69047;53.358;-1.486;2023-07-29T02:02:04;3.97;;;1.88;;
54561;SDS011;69047;53.358;-1.486;2023-07-29T02:04:29;5.63;;;2.00;;
54561;SDS011;69047;53.358;-1.486;2023-07-29T02:06:54;4.32;;;2.20;;
54561;SDS011;69047;53.358;-1.486;2023-07-29T02:09:20;2.95;;;1.75;;
54561;SDS011;69047;53.358;-1.486;2023-07-29T02:11:45;7.35;;;2.50;;
54561;SDS011;69047;53.358;-1.486;2023-07-29T02:14:11;5.75;;;2.10;;
54561;SDS011;69047;53.358;-1.486;2023-07-29T02:16:36;4.45;;;1.85;;
54561;SDS011;69047;53.358;-1.486;2023-07-29T02:19:02;5.53;;;2.22;;
54561;SDS011;69047;53.358;-1.486;2023-07-29T02:21:28;4.47;;;2.25;;
54561;SDS011;69047;53.358;-1.486;2023-07-29T02:23:53;5.72;;;2.25;;
54561;SDS011;69047;53.358;-1.486;2023-07-29T02:26:19;3.47;;;2.03;;
54561;SDS011;69047;53.358;-1.486;2023-07-29T02:28:44;6.82;;;2.65;;
54561;SDS011;69047;53.358;-1.486;2023-07-29T02:31:16;4.32;;;2.30;;
54561;SDS011;69047;53.358;-1.486;2023-07-29T02:33:44;9.32;;;2.88;;
54561;SDS011;69047;53.358;-1.486;2023-07-29T02:36:11;4.18;;;1.90;;
54561;SDS011;69047;53.358;-1.486;2023-07-29T02:38:37;10.38;;;2.53;;
54561;SDS011;69047;53.358;-1.486;2023-07-29T02:41:03;3.70;;;1.70;;
54561;SDS011;69047;53.358;-1.486;2023-07-29T02:43:28;2.97;;;1.90;;
54561;SDS011;69047;53.358;-1.486;2023-07-29T02:45:54;3.15;;;1.98;;
54561;SDS011;69047;53.358;-1.486;2023-07-29T02:48:19;7.65;;;1.95;;
54561;SDS011;69047;53.358;-1.486;2023-07-29T02:50:45;4.40;;;2.05;;
54561;SDS011;69047;53.358;-1.486;2023-07-29T02:53:10;5.45;;;1.92;;
54561;SDS011;69047;53.358;-1.486;2023-07-29T02:55:35;4.70;;;1.83;;
54561;SDS011;69047;53.358;-1.486;2023-07-29T02:58:04;3.45;;;1.65;;
54561;SDS011;69047;53.358;-1.486;2023-07-29T03:00:31;6.35;;;1.98;;
54561;SDS011;69047;53.358;-1.486;2023-07-29T03:02:58;8.48;;;2.10;;
54561;SDS011;69047;53.358;-1.486;2023-07-29T03:05:23;8.50;;;1.80;;
54561;SDS011;69047;53.358;-1.486;2023-07-29T03:07:48;4.22;;;2.30;;
54561;SDS011;69047;53.358;-1.486;2023-07-29T03:10:14;7.40;;;1.58;;
54561;SDS011;69047;53.358;-1.486;2023-07-29T03:12:40;5.97;;;2.10;;
54561;SDS011;69047;53.358;-1.486;2023-07-29T03:15:05;2.83;;;1.92;;
54561;SDS011;69047;53.358;-1.486;2023-07-29T03:17:31;7.90;;;2.17;;
54561;SDS011;69047;53.358;-1.486;2023-07-29T03:19:56;7.47;;;2.33;;
54561;SDS011;69047;53.358;-1.486;2023-07-29T03:22:22;9.13;;;1.80;;
54561;SDS011;69047;53.358;-1.486;2023-07-29T03:24:47;9.73;;;2.05;;
54561;SDS011;69047;53.358;-1.486;2023-07-29T03:27:12;6.32;;;2.03;;
54561;SDS011;69047;53.358;-1.486;2023-07-29T03:29:40;4.18;;;1.85;;
54561;SDS011;69047;53.358;-1.486;2023-07-29T03:32:05;10.77;;;2.25;;
54561;SDS011;69047;53.358;-1.486;2023-07-29T03:34:31;11.50;;;2.00;;
54561;SDS011;69047;53.358;-1.486;2023-07-29T03:36:57;7.72;;;1.75;;
54561;SDS011;69047;53.358;-1.486;2023-07-29T03:39:22;13.13;;;2.67;;
54561;SDS011;69047;53.358;-1.486;2023-07-29T03:41:48;6.00;;;1.63;;
54561;SDS011;69047;53.358;-1.486;2023-07-29T03:44:13;9.40;;;2.08;;
54561;SDS011;69047;53.358;-1.486;2023-07-29T03:46:39;6.78;;;2.35;;
54561;SDS011;69047;53.358;-1.486;2023-07-29T03:49:04;5.47;;;2.22;;
54561;SDS011;69047;53.358;-1.486;2023-07-29T03:51:29;7.05;;;2.03;;
54561;SDS011;69047;53.358;-1.486;2023-07-29T03:53:55;11.27;;;2.45;;
54561;SDS011;69047;53.358;-1.486;2023-07-29T03:56:20;10.13;;;2.00;;
54561;SDS011;69047;53.358;-1.486;2023-07-29T03:58:46;12.65;;;2.17;;
54561;SDS011;69047;53.358;-1.486;2023-07-29T04:01:13;9.48;;;2.25;;
54561;SDS011;69047;53.358;-1.486;2023-07-29T04:03:38;10.30;;;2.45;;
54561;SDS011;69047;53.358;-1.486;2023-07-29T04:06:04;6.30;;;1.95;;
54561;SDS011;69047;53.358;-1.486;2023-07-29T04:08:29;11.50;;;2.08;;
54561;SDS011;69047;53.358;-1.486;2023-07-29T04:10:54;15.57;;;2.85;;
54561;SDS011;69047;53.358;-1.486;2023-07-29T04:13:20;9.48;;;2.00;;
54561;SDS011;69047;53.358;-1.486;2023-07-29T04:15:46;7.00;;;2.05;;
54561;SDS011;69047;53.358;-1.486;2023-07-29T04:18:11;6.88;;;2.05;;
54561;SDS011;69047;53.358;-1.486;2023-07-29T04:20:36;9.65;;;2.28;;
54561;SDS011;69047;53.358;-1.486;2023-07-29T04:23:02;6.22;;;2.58;;
54561;SDS011;69047;53.358;-1.486;2023-07-29T04:25:27;13.07;;;3.42;;
54561;SDS011;69047;53.358;-1.486;2023-07-29T04:27:53;16.80;;;3.15;;
54561;SDS011;69047;53.358;-1.486;2023-07-29T04:30:18;14.45;;;2.53;;
54561;SDS011;69047;53.358;-1.486;2023-07-29T04:32:44;11.60;;;3.25;;
54561;SDS011;69047;53.358;-1.486;2023-07-29T04:35:10;11.00;;;2.67;;
54561;SDS011;69047;53.358;-1.486;2023-07-29T04:37:35;8.20;;;2.70;;
54561;SDS011;69047;53.358;-1.486;2023-07-29T04:40:01;7.55;;;2.08;;
54561;SDS011;69047;53.358;-1.486;2023-07-29T04:42:26;16.98;;;2.72;;
54561;SDS011;69047;53.358;-1.486;2023-07-29T04:44:52;9.48;;;2.40;;
54561;SDS011;69047;53.358;-1.486;2023-07-29T04:47:17;8.52;;;2.40;;
54561;SDS011;69047;53.358;-1.486;2023-07-29T04:49:43;11.27;;;2.67;;
54561;SDS011;69047;53.358;-1.486;2023-07-29T04:52:08;10.95;;;2.63;;
54561;SDS011;69047;53.358;-1.486;2023-07-29T04:54:33;8.93;;;2.03;;
54561;SDS011;69047;53.358;-1.486;2023-07-29T04:56:59;10.68;;;3.40;;
54561;SDS011;69047;53.358;-1.486;2023-07-29T04:59:24;11.98;;;3.13;;
54561;SDS011;69047;53.358;-1.486;2023-07-29T05:01:50;13.30;;;2.95;;
54561;SDS011;69047;53.358;-1.486;2023-07-29T05:04:15;14.95;;;3.45;;
54561;SDS011;69047;53.358;-1.486;2023-07-29T05:06:41;9.82;;;3.38;;
54561;SDS011;69047;53.358;-1.486;2023-07-29T05:09:16;9.95;;;2.83;;
54561;SDS011;69047;53.358;-1.486;2023-07-29T05:11:45;14.18;;;3.17;;
54561;SDS011;69047;53.358;-1.486;2023-07-29T05:14:13;7.15;;;2.22;;
54561;SDS011;69047;53.358;-1.486;2023-07-29T05:16:39;15.20;;;2.63;;
54561;SDS011;69047;53.358;-1.486;2023-07-29T05:19:05;16.20;;;3.22;;
54561;SDS011;69047;53.358;-1.486;2023-07-29T05:21:30;10.23;;;2.92;;
54561;SDS011;69047;53.358;-1.486;2023-07-29T05:23:56;15.07;;;3.67;;
54561;SDS011;69047;53.358;-1.486;2023-07-29T05:26:21;11.93;;;3.33;;
54561;SDS011;69047;53.358;-1.486;2023-07-29T05:28:47;9.77;;;2.88;;
54561;SDS011;69047;53.358;-1.486;2023-07-29T05:31:13;8.38;;;3.13;;
54561;SDS011;69047;53.358;-1.486;2023-07-29T05:33:38;10.88;;;2.75;;
54561;SDS011;69047;53.358;-1.486;2023-07-29T05:36:03;11.30;;;2.53;;
54561;SDS011;69047;53.358;-1.486;2023-07-29T05:38:30;19.75;;;4.63;;
54561;SDS011;69047;53.358;-1.486;2023-07-29T05:40:55;7.05;;;2.42;;
54561;SDS011;69047;53.358;-1.486;2023-07-29T05:43:20;6.70;;;2.22;;
54561;SDS011;69047;53.358;-1.486;2023-07-29T05:45:46;16.20;;;3.08;;
54561;SDS011;69047;53.358;-1.486;2023-07-29T05:48:11;14.30;;;3.35;;
54561;SDS011;69047;53.358;-1.486;2023-07-29T05:50:36;12.73;;;4.05;;
54561;SDS011;69047;53.358;-1.486;2023-07-29T05:53:02;9.43;;;3.25;;
54561;SDS011;69047;53.358;-1.486;2023-07-29T05:55:27;12.10;;;3.13;;
54561;SDS011;69047;53.358;-1.486;2023-07-29T05:57:52;12.23;;;3.50;;
54561;SDS011;69047;53.358;-1.486;2023-07-29T06:00:18;9.38;;;3.13;;
54561;SDS011;69047;53.358;-1.486;2023-07-29T06:02:44;17.63;;;3.53;;
54561;SDS011;69047;53.358;-1.486;2023-07-29T06:05:09;14.90;;;3.33;;
54561;SDS011;69047;53.358;-1.486;2023-07-29T06:07:34;10.45;;;2.05;;
54561;SDS011;69047;53.358;-1.486;2023-07-29T06:10:00;16.95;;;3.40;;
54561;SDS011;69047;53.358;-1.486;2023-07-29T06:12:25;13.60;;;3.08;;
54561;SDS011;69047;53.358;-1.486;2023-07-29T06:14:51;14.38;;;3.35;;
54561;SDS011;69047;53.358;-1.486;2023-07-29T06:17:17;13.88;;;3.15;;
54561;SDS011;69047;53.358;-1.486;2023-07-29T06:19:42;9.88;;;2.67;;
54561;SDS011;69047;53.358;-1.486;2023-07-29T06:22:09;12.63;;;2.97;;
54561;SDS011;69047;53.358;-1.486;2023-07-29T06:24:35;15.18;;;3.97;;
54561;SDS011;69047;53.358;-1.486;2023-07-29T06:27:00;10.55;;;2.65;;
54561;SDS011;69047;53.358;-1.486;2023-07-29T06:29:26;12.57;;;4.45;;
54561;SDS011;69047;53.358;-1.486;2023-07-29T06:31:51;9.02;;;3.05;;
54561;SDS011;69047;53.358;-1.486;2023-07-29T06:34:17;10.93;;;3.90;;
54561;SDS011;69047;53.358;-1.486;2023-07-29T06:36:43;10.30;;;2.53;;
54561;SDS011;69047;53.358;-1.486;2023-07-29T06:39:09;12.18;;;2.88;;
54561;SDS011;69047;53.358;-1.486;2023-07-29T06:41:34;8.63;;;2.63;;
54561;SDS011;69047;53.358;-1.486;2023-07-29T06:44:00;12.70;;;3.20;;
54561;SDS011;69047;53.358;-1.486;2023-07-29T06:46:26;12.40;;;2.58;;
54561;SDS011;69047;53.358;-1.486;2023-07-29T06:48:51;10.55;;;3.67;;
54561;SDS011;69047;53.358;-1.486;2023-07-29T06:51:16;14.70;;;3.10;;
54561;SDS011;69047;53.358;-1.486;2023-07-29T06:53:42;12.93;;;2.72;;
54561;SDS011;69047;53.358;-1.486;2023-07-29T06:56:07;14.27;;;2.75;;
54561;SDS011;69047;53.358;-1.486;2023-07-29T06:58:34;5.80;;;1.80;;
54561;SDS011;69047;53.358;-1.486;2023-07-29T07:00:59;10.82;;;2.75;;
54561;SDS011;69047;53.358;-1.486;2023-07-29T07:03:25;12.70;;;2.53;;
54561;SDS011;69047;53.358;-1.486;2023-07-29T07:05:50;9.45;;;2.50;;
54561;SDS011;69047;53.358;-1.486;2023-07-29T07:08:16;5.82;;;2.20;;
54561;SDS011;69047;53.358;-1.486;2023-07-29T07:10:41;9.70;;;3.28;;
54561;SDS011;69047;53.358;-1.486;2023-07-29T07:13:07;8.20;;;2.85;;
54561;SDS011;69047;53.358;-1.486;2023-07-29T07:15:32;14.73;;;3.53;;
54561;SDS011;69047;53.358;-1.486;2023-07-29T07:17:57;13.40;;;2.67;;
54561;SDS011;69047;53.358;-1.486;2023-07-29T07:20:23;15.60;;;2.83;;
54561;SDS011;69047;53.358;-1.486;2023-07-29T07:22:48;13.52;;;2.53;;
54561;SDS011;69047;53.358;-1.486;2023-07-29T07:25:13;9.90;;;2.67;;
54561;SDS011;69047;53.358;-1.486;2023-07-29T07:27:39;14.27;;;2.17;;
54561;SDS011;69047;53.358;-1.486;2023-07-29T07:30:04;8.98;;;3.03;;
54561;SDS011;69047;53.358;-1.486;2023-07-29T07:32:30;8.88;;;2.92;;
54561;SDS011;69047;53.358;-1.486;2023-07-29T07:34:56;7.85;;;2.05;;
54561;SDS011;69047;53.358;-1.486;2023-07-29T07:37:21;8.80;;;2.20;;
54561;SDS011;69047;53.358;-1.486;2023-07-29T07:39:47;8.48;;;2.58;;
54561;SDS011;69047;53.358;-1.486;2023-07-29T07:42:12;9.20;;;2.28;;
54561;SDS011;69047;53.358;-1.486;2023-07-29T07:44:37;7.72;;;1.88;;
54561;SDS011;69047;53.358;-1.486;2023-07-29T07:47:03;10.88;;;2.78;;
54561;SDS011;69047;53.358;-1.486;2023-07-29T07:49:28;7.57;;;2.28;;
54561;SDS011;69047;53.358;-1.486;2023-07-29T07:51:54;10.38;;;2.42;;
54561;SDS011;69047;53.358;-1.486;2023-07-29T07:54:19;10.93;;;2.70;;
54561;SDS011;69047;53.358;-1.486;2023-07-29T07:56:45;12.60;;;3.08;;
54561;SDS011;69047;53.358;-1.486;2023-07-29T07:59:11;8.98;;;2.47;;
54561;SDS011;69047;53.358;-1.486;2023-07-29T08:01:36;13.45;;;2.42;;
54561;SDS011;69047;53.358;-1.486;2023-07-29T08:04:03;10.48;;;2.60;;
54561;SDS011;69047;53.358;-1.486;2023-07-29T08:06:29;7.45;;;2.00;;
54561;SDS011;69047;53.358;-1.486;2023-07-29T08:08:55;15.00;;;2.53;;
54561;SDS011;69047;53.358;-1.486;2023-07-29T08:11:20;7.75;;;2.55;;
54561;SDS011;69047;53.358;-1.486;2023-07-29T08:13:46;9.65;;;1.83;;
54561;SDS011;69047;53.358;-1.486;2023-07-29T08:16:11;11.63;;;1.80;;
54561;SDS011;69047;53.358;-1.486;2023-07-29T08:18:37;10.60;;;1.90;;
54561;SDS011;69047;53.358;-1.486;2023-07-29T08:21:02;15.35;;;2.95;;
54561;SDS011;69047;53.358;-1.486;2023-07-29T08:23:29;13.85;;;1.75;;
54561;SDS011;69047;53.358;-1.486;2023-07-29T08:25:56;8.32;;;3.05;;
54561;SDS011;69047;53.358;-1.486;2023-07-29T08:28:27;5.03;;;1.38;;
54561;SDS011;69047;53.358;-1.486;2023-07-29T08:30:53;6.57;;;1.77;;
54561;SDS011;69047;53.358;-1.486;2023-07-29T08:33:19;8.63;;;1.63;;
54561;SDS011;69047;53.358;-1.486;2023-07-29T08:35:44;11.73;;;1.88;;
54561;SDS011;69047;53.358;-1.486;2023-07-29T08:38:09;10.27;;;1.88;;
54561;SDS011;69047;53.358;-1.486;2023-07-29T08:40:35;6.38;;;1.90;;
54561;SDS011;69047;53.358;-1.486;2023-07-29T08:43:06;6.97;;;1.95;;
54561;SDS011;69047;53.358;-1.486;2023-07-29T08:45:34;8.68;;;1.90;;
54561;SDS011;69047;53.358;-1.486;2023-07-29T08:48:08;8.30;;;1.83;;
54561;SDS011;69047;53.358;-1.486;2023-07-29T08:50:36;6.38;;;2.53;;
54561;SDS011;69047;53.358;-1.486;2023-07-29T08:53:05;5.75;;;1.13;;
54561;SDS011;69047;53.358;-1.486;2023-07-29T08:55:31;7.18;;;1.35;;
54561;SDS011;69047;53.358;-1.486;2023-07-29T08:57:58;4.13;;;1.30;;
54561;SDS011;69047;53.358;-1.486;2023-07-29T09:00:27;8.88;;;1.88;;
54561;SDS011;69047;53.358;-1.486;2023-07-29T09:02:53;6.07;;;1.60;;
54561;SDS011;69047;53.358;-1.486;2023-07-29T09:05:20;6.20;;;1.67;;
54561;SDS011;69047;53.358;-1.486;2023-07-29T09:07:48;7.50;;;2.38;;
54561;SDS011;69047;53.358;-1.486;2023-07-29T09:10:16;5.80;;;1.65;;
54561;SDS011;69047;53.358;-1.486;2023-07-29T09:12:46;9.45;;;1.40;;
54561;SDS011;69047;53.358;-1.486;2023-07-29T09:15:11;4.13;;;1.45;;
54561;SDS011;69047;53.358;-1.486;2023-07-29T09:17:37;7.10;;;1.65;;
54561;SDS011;69047;53.358;-1.486;2023-07-29T09:20:02;6.60;;;1.30;;
54561;SDS011;69047;53.358;-1.486;2023-07-29T09:22:28;9.88;;;1.50;;
54561;SDS011;69047;53.358;-1.486;2023-07-29T09:24:53;5.93;;;1.23;;
54561;SDS011;69047;53.358;-1.486;2023-07-29T09:27:26;6.97;;;1.42;;
54561;SDS011;69047;53.358;-1.486;2023-07-29T09:29:52;12.05;;;1.80;;
54561;SDS011;69047;53.358;-1.486;2023-07-29T09:32:23;6.63;;;1.38;;
54561;SDS011;69047;53.358;-1.486;2023-07-29T09:34:49;9.07;;;1.52;;
54561;SDS011;69047;53.358;-1.486;2023-07-29T09:37:18;6.20;;;1.50;;
54561;SDS011;69047;53.358;-1.486;2023-07-29T09:39:46;12.27;;;2.08;;
54561;SDS011;69047;53.358;-1.486;2023-07-29T09:42:19;5.60;;;1.90;;
54561;SDS011;69047;53.358;-1.486;2023-07-29T09:44:47;7.45;;;1.63;;
54561;SDS011;69047;53.358;-1.486;2023-07-29T09:47:19;8.48;;;1.80;;
54561;SDS011;69047;53.358;-1.486;2023-07-29T09:49:48;6.00;;;2.05;;
54561;SDS011;69047;53.358;-1.486;2023-07-29T09:52:15;7.45;;;2.60;;
54561;SDS011;69047;53.358;-1.486;2023-07-29T09:54:42;13.48;;;1.60;;
54561;SDS011;69047;53.358;-1.486;2023-07-29T09:57:08;9.63;;;1.85;;
54561;SDS011;69047;53.358;-1.486;2023-07-29T09:59:34;4.88;;;0.98;;
54561;SDS011;69047;53.358;-1.486;2023-07-29T10:01:59;9.18;;;1.70;;
54561;SDS011;69047;53.358;-1.486;2023-07-29T10:04:25;5.30;;;1.35;;
54561;SDS011;69047;53.358;-1.486;2023-07-29T10:06:52;4.60;;;1.20;;
54561;SDS011;69047;53.358;-1.486;2023-07-29T10:09:17;11.75;;;1.88;;
54561;SDS011;69047;53.358;-1.486;2023-07-29T10:11:45;12.82;;;1.42;;
54561;SDS011;69047;53.358;-1.486;2023-07-29T10:14:12;13.50;;;1.92;;
54561;SDS011;69047;53.358;-1.486;2023-07-29T10:16:39;7.25;;;1.20;;
54561;SDS011;69047;53.358;-1.486;2023-07-29T10:19:07;7.68;;;1.67;;
54561;SDS011;69047;53.358;-1.486;2023-07-29T10:21:32;8.23;;;1.70;;
54561;SDS011;69047;53.358;-1.486;2023-07-29T10:24:01;11.40;;;1.90;;
54561;SDS011;69047;53.358;-1.486;2023-07-29T10:26:30;7.07;;;1.65;;
54561;SDS011;69047;53.358;-1.486;2023-07-29T10:28:59;7.75;;;1.60;;
54561;SDS011;69047;53.358;-1.486;2023-07-29T10:31:29;8.57;;;1.30;;
54561;SDS011;69047;53.358;-1.486;2023-07-29T10:33:56;3.58;;;1.25;;
54561;SDS011;69047;53.358;-1.486;2023-07-29T10:36:22;8.80;;;1.48;;
54561;SDS011;69047;53.358;-1.486;2023-07-29T10:38:49;9.95;;;1.67;;
54561;SDS011;69047;53.358;-1.486;2023-07-29T10:41:14;5.97;;;1.35;;
54561;SDS011;69047;53.358;-1.486;2023-07-29T10:43:40;6.07;;;1.58;;
54561;SDS011;69047;53.358;-1.486;2023-07-29T10:46:18;10.05;;;1.77;;
54561;SDS011;69047;53.358;-1.486;2023-07-29T10:48:54;6.78;;;1.15;;
54561;SDS011;69047;53.358;-1.486;2023-07-29T10:54:12;8.32;;;1.52;;
54561;SDS011;69047;53.358;-1.486;2023-07-29T10:56:48;5.38;;;1.10;;
54561;SDS011;69047;53.358;-1.486;2023-07-29T11:01:42;5.50;;;1.52;;
54561;SDS011;69047;53.358;-1.486;2023-07-29T11:09:39;6.38;;;1.35;;
54561;SDS011;69047;53.358;-1.486;2023-07-29T11:17:51;9.93;;;1.48;;
54561;SDS011;69047;53.358;-1.486;2023-07-29T11:20:24;8.25;;;1.67;;
54561;SDS011;69047;53.358;-1.486;2023-07-29T11:22:53;5.95;;;1.40;;
54561;SDS011;69047;53.358;-1.486;2023-07-29T11:25:20;8.77;;;1.48;;
54561;SDS011;69047;53.358;-1.486;2023-07-29T11:27:47;7.38;;;2.22;;
54561;SDS011;69047;53.358;-1.486;2023-07-29T11:30:14;6.68;;;1.85;;
54561;SDS011;69047;53.358;-1.486;2023-07-29T11:32:42;9.57;;;2.10;;
54561;SDS011;69047;53.358;-1.486;2023-07-29T11:35:10;13.65;;;2.05;;
54561;SDS011;69047;53.358;-1.486;2023-07-29T11:37:39;9.07;;;2.10;;
54561;SDS011;69047;53.358;-1.486;2023-07-29T11:40:05;10.32;;;2.55;;
54561;SDS011;69047;53.358;-1.486;2023-07-29T11:42:32;11.35;;;3.00;;
54561;SDS011;69047;53.358;-1.486;2023-07-29T11:45:02;9.35;;;2.35;;
54561;SDS011;69047;53.358;-1.486;2023-07-29T11:47:29;14.73;;;3.33;;
54561;SDS011;69047;53.358;-1.486;2023-07-29T11:49:57;15.23;;;2.35;;
54561;SDS011;69047;53.358;-1.486;2023-07-29T11:52:24;12.25;;;2.17;;
54561;SDS011;69047;53.358;-1.486;2023-07-29T11:54:49;6.78;;;2.20;;
54561;SDS011;69047;53.358;-1.486;2023-07-29T11:57:15;13.98;;;3.53;;
54561;SDS011;69047;53.358;-1.486;2023-07-29T11:59:43;13.90;;;2.67;;
54561;SDS011;69047;53.358;-1.486;2023-07-29T12:02:15;13.50;;;2.28;;
54561;SDS011;69047;53.358;-1.486;2023-07-29T12:07:08;9.70;;;2.95;;
54561;SDS011;69047;53.358;-1.486;2023-07-29T12:09:34;11.20;;;2.60;;
54561;SDS011;69047;53.358;-1.486;2023-07-29T12:12:02;11.27;;;3.15;;
54561;SDS011;69047;53.358;-1.486;2023-07-29T12:14:28;10.02;;;2.88;;
54561;SDS011;69047;53.358;-1.486;2023-07-29T12:16:54;7.57;;;1.55;;
54561;SDS011;69047;53.358;-1.486;2023-07-29T12:19:19;7.13;;;1.73;;
54561;SDS011;69047;53.358;-1.486;2023-07-29T12:21:47;5.95;;;1.23;;
54561;SDS011;69047;53.358;-1.486;2023-07-29T12:24:13;15.52;;;2.05;;
54561;SDS011;69047;53.358;-1.486;2023-07-29T12:26:39;8.27;;;2.53;;
54561;SDS011;69047;53.358;-1.486;2023-07-29T12:29:15;10.82;;;1.77;;
54561;SDS011;69047;53.358;-1.486;2023-07-29T12:31:44;13.55;;;3.22;;
54561;SDS011;69047;53.358;-1.486;2023-07-29T12:34:10;9.60;;;2.25;;
54561;SDS011;69047;53.358;-1.486;2023-07-29T12:39:16;10.82;;;1.88;;
54561;SDS011;69047;53.358;-1.486;2023-07-29T12:41:42;5.75;;;1.45;;
54561;SDS011;69047;53.358;-1.486;2023-07-29T12:44:08;10.20;;;1.70;;
54561;SDS011;69047;53.358;-1.486;2023-07-29T12:46:33;11.15;;;1.65;;
54561;SDS011;69047;53.358;-1.486;2023-07-29T12:48:58;8.50;;;1.65;;
54561;SDS011;69047;53.358;-1.486;2023-07-29T12:51:24;4.78;;;1.52;;
54561;SDS011;69047;53.358;-1.486;2023-07-29T12:53:49;8.63;;;1.55;;
54561;SDS011;69047;53.358;-1.486;2023-07-29T12:56:14;7.97;;;1.25;;
54561;SDS011;69047;53.358;-1.486;2023-07-29T12:58:40;11.40;;;1.60;;
54561;SDS011;69047;53.358;-1.486;2023-07-29T13:01:05;10.75;;;1.80;;
54561;SDS011;69047;53.358;-1.486;2023-07-29T13:03:30;7.78;;;1.42;;
54561;SDS011;69047;53.358;-1.486;2023-07-29T13:05:56;6.43;;;1.52;;
54561;SDS011;69047;53.358;-1.486;2023-07-29T13:08:21;5.82;;;1.77;;
54561;SDS011;69047;53.358;-1.486;2023-07-29T13:10:48;8.65;;;1.88;;
54561;SDS011;69047;53.358;-1.486;2023-07-29T13:13:13;8.30;;;1.75;;
54561;SDS011;69047;53.358;-1.486;2023-07-29T13:15:39;7.97;;;1.25;;
54561;SDS011;69047;53.358;-1.486;2023-07-29T13:18:04;8.25;;;1.73;;
54561;SDS011;69047;53.358;-1.486;2023-07-29T13:20:29;9.15;;;1.83;;
54561;SDS011;69047;53.358;-1.486;2023-07-29T13:22:55;5.05;;;1.48;;
54561;SDS011;69047;53.358;-1.486;2023-07-29T13:25:20;8.23;;;2.40;;
54561;SDS011;69047;53.358;-1.486;2023-07-29T13:27:46;7.35;;;1.90;;
54561;SDS011;69047;53.358;-1.486;2023-07-29T13:30:11;15.02;;;2.30;;
54561;SDS011;69047;53.358;-1.486;2023-07-29T13:32:36;8.65;;;1.92;;
54561;SDS011;69047;53.358;-1.486;2023-07-29T13:35:02;6.28;;;1.30;;
54561;SDS011;69047;53.358;-1.486;2023-07-29T13:37:27;4.68;;;1.13;;
54561;SDS011;69047;53.358;-1.486;2023-07-29T13:39:52;15.18;;;2.88;;
54561;SDS011;69047;53.358;-1.486;2023-07-29T13:42:18;10.43;;;1.73;;
54561;SDS011;69047;53.358;-1.486;2023-07-29T13:44:43;12.75;;;2.58;;
54561;SDS011;69047;53.358;-1.486;2023-07-29T13:47:08;6.43;;;1.67;;
54561;SDS011;69047;53.358;-1.486;2023-07-29T13:49:34;3.08;;;1.00;;
54561;SDS011;69047;53.358;-1.486;2023-07-29T13:51:59;4.30;;;1.50;;
54561;SDS011;69047;53.358;-1.486;2023-07-29T13:54:24;12.48;;;1.48;;
54561;SDS011;69047;53.358;-1.486;2023-07-29T13:56:50;4.63;;;1.30;;
54561;SDS011;69047;53.358;-1.486;2023-07-29T13:59:15;3.75;;;1.10;;
54561;SDS011;69047;53.358;-1.486;2023-07-29T14:01:41;4.47;;;1.70;;
54561;SDS011;69047;53.358;-1.486;2023-07-29T14:04:06;5.70;;;1.25;;
54561;SDS011;69047;53.358;-1.486;2023-07-29T14:06:32;7.63;;;2.05;;
54561;SDS011;69047;53.358;-1.486;2023-07-29T14:08:57;5.85;;;1.05;;
54561;SDS011;69047;53.358;-1.486;2023-07-29T14:11:22;5.13;;;1.42;;
54561;SDS011;69047;53.358;-1.486;2023-07-29T14:13:48;4.57;;;1.00;;
54561;SDS011;69047;53.358;-1.486;2023-07-29T14:16:13;3.85;;;1.38;;
54561;SDS011;69047;53.358;-1.486;2023-07-29T14:18:38;8.80;;;1.50;;
54561;SDS011;69047;53.358;-1.486;2023-07-29T14:21:04;9.50;;;0.95;;
54561;SDS011;69047;53.358;-1.486;2023-07-29T14:23:29;6.35;;;1.13;;
54561;SDS011;69047;53.358;-1.486;2023-07-29T14:25:55;6.30;;;0.90;;
54561;SDS011;69047;53.358;-1.486;2023-07-29T14:28:20;10.80;;;1.90;;
54561;SDS011;69047;53.358;-1.486;2023-07-29T14:30:46;5.65;;;1.33;;
54561;SDS011;69047;53.358;-1.486;2023-07-29T14:33:11;5.78;;;1.45;;
54561;SDS011;69047;53.358;-1.486;2023-07-29T14:35:37;8.07;;;1.77;;
54561;SDS011;69047;53.358;-1.486;2023-07-29T14:38:02;6.82;;;1.23;;
54561;SDS011;69047;53.358;-1.486;2023-07-29T14:40:27;6.53;;;1.83;;
54561;SDS011;69047;53.358;-1.486;2023-07-29T14:42:53;5.00;;;1.30;;
54561;SDS011;69047;53.358;-1.486;2023-07-29T14:45:18;9.90;;;1.52;;
54561;SDS011;69047;53.358;-1.486;2023-07-29T14:47:44;7.10;;;1.20;;